»·PEaware :: VRD208 KLAX-MMSD

VRD208 :: KLAX-MMSD

FLIGHT INFORMATION

Flight Status: Arrived
Operator:
Virgin America
More flights by this operator :: More flights under this callsign
Pilot: Pete D. (19559)
Aircraft: AIRBUS A320
(A320)
More flights by this aircraft type
Origin: KLAX Los Angeles Intl
United States
Destination: MMSD Los Cabos Intl
Mexico
More flights between these airports :: More routes between these airports
Route: PNDAH2 OTAYY TIJ UT6 IMUSU UT25 LTO V4 MARUX V4 SJD
File this flight plan on PilotEdge
Remarks: CALLSIGN REDWOOD
Altitude:
(Current/Filed)
35,000ft
Speed:
(Current/Filed)
450kts
Departed: 10-Sep-18 04:08 PM
Arrived: 10-Sep-18 06:11 PM
Distance/Time
Traveled:
792nm/2:03
Distance/Time
To Go:
Arrived

Flight Plot

Page will automatically refresh every two minutes.

Flight plan parsing failed; only flown route is shown


Map Options




Map Legend


Flown Route
Filed Route
Departure Airport
Arrival Airport
Navaid (VOR, NDB)
Fix

Horizontal Profiles

Position Reports

Time Latitude Longitude Heading Altitude Ground
Speed
10-Sep-18 15:40 33.946424 -118.406414 296 136ft 0kts
10-Sep-18 15:41 33.946424 -118.406414 296 136ft 0kts
10-Sep-18 15:42 33.946424 -118.406414 296 136ft 0kts
10-Sep-18 15:43 33.946424 -118.406414 296 136ft 0kts
10-Sep-18 15:44 33.946424 -118.406414 296 136ft 0kts
10-Sep-18 15:45 33.946424 -118.406414 296 136ft 0kts
10-Sep-18 15:46 33.946424 -118.406414 296 136ft 0kts
10-Sep-18 15:47 33.946424 -118.406414 296 136ft 0kts
10-Sep-18 15:48 33.946424 -118.406414 296 136ft 0kts
10-Sep-18 15:49 33.946424 -118.406414 296 136ft 0kts
10-Sep-18 15:50 33.946424 -118.406414 296 136ft 0kts
10-Sep-18 15:51 33.946424 -118.406414 296 136ft 0kts
10-Sep-18 15:52 33.946424 -118.406414 296 136ft 0kts
10-Sep-18 15:53 33.946424 -118.406414 296 136ft 0kts
10-Sep-18 15:54 33.946424 -118.406414 296 136ft 0kts
10-Sep-18 15:55 33.946424 -118.406414 296 136ft 0kts
10-Sep-18 15:56 33.946381 -118.406308 295 136ft 2kts
10-Sep-18 15:57 33.946075 -118.405802 351 136ft 0kts
10-Sep-18 15:58 33.947166 -118.405966 352 136ft 1kts
10-Sep-18 15:59 33.947194 -118.405971 352 136ft 0kts
10-Sep-18 16:00 33.947194 -118.405971 352 136ft 0kts
10-Sep-18 16:01 33.947194 -118.405971 352 136ft 0kts
10-Sep-18 16:02 33.947194 -118.405971 352 136ft 0kts
10-Sep-18 16:03 33.947533 -118.406007 0 136ft 4kts
10-Sep-18 16:04 33.948707 -118.405410 82 136ft 6kts
10-Sep-18 16:05 33.948947 -118.403066 83 136ft 10kts
10-Sep-18 16:06 33.949202 -118.400393 84 136ft 0kts
10-Sep-18 16:07 33.949402 -118.399403 55 136ft 0kts
10-Sep-18 16:08 33.949402 -118.399402 55 136ft 0kts
10-Sep-18 16:09 33.950383 -118.399879 258 136ft 3kts
10-Sep-18 16:10 33.947578 -118.431085 264 851ft 170kts
10-Sep-18 16:11 33.942009 -118.492800 269 3399ft 222kts
10-Sep-18 16:12 33.936918 -118.575577 265 5424ft 262kts
10-Sep-18 16:13 33.896359 -118.641843 185 8561ft 292kts
10-Sep-18 16:14 33.815337 -118.618145 146 10939ft 339kts
10-Sep-18 16:15 33.731627 -118.549069 146 12881ft 378kts
10-Sep-18 16:16 33.666938 -118.451047 117 15217ft 392kts
10-Sep-18 16:17 33.617459 -118.336319 117 17600ft 397kts
10-Sep-18 16:18 33.566027 -118.216457 117 17134ft 404kts
10-Sep-18 16:19 33.514203 -118.096321 117 18949ft 414kts
10-Sep-18 16:20 33.455580 -117.976952 137 20702ft 424kts
10-Sep-18 16:21 33.367083 -117.882820 139 22317ft 433kts
10-Sep-18 16:22 33.276275 -117.786627 139 23804ft 442kts
10-Sep-18 16:23 33.183566 -117.688694 139 25159ft 451kts
10-Sep-18 16:24 33.090681 -117.586518 137 26414ft 459kts
10-Sep-18 16:25 32.997080 -117.482530 137 27652ft 464kts
10-Sep-18 16:26 32.902948 -117.378270 137 28726ft 470kts
10-Sep-18 16:27 32.809049 -117.274588 137 29636ft 476kts
10-Sep-18 16:28 32.719463 -117.175929 137 30803ft 472kts
10-Sep-18 16:29 32.627258 -117.066445 132 31970ft 470kts
10-Sep-18 16:30 32.539515 -116.953173 137 33085ft 466kts
10-Sep-18 16:31 32.440539 -116.856555 141 34087ft 463kts
10-Sep-18 16:32 32.341074 -116.761054 141 34937ft 462kts
10-Sep-18 16:33 32.241860 -116.666096 141 34959ft 460kts
10-Sep-18 16:34 32.142611 -116.571317 140 34960ft 461kts
10-Sep-18 16:35 32.045349 -116.474158 140 34958ft 461kts
10-Sep-18 16:36 31.947667 -116.377103 140 34948ft 461kts
10-Sep-18 16:37 31.852150 -116.282517 140 34947ft 460kts
10-Sep-18 16:38 31.754264 -116.185867 141 34958ft 460kts
10-Sep-18 16:39 31.652779 -116.094533 143 34906ft 460kts
10-Sep-18 16:40 31.551048 -116.004058 143 34832ft 461kts
10-Sep-18 16:41 31.448989 -115.913550 143 34762ft 461kts
10-Sep-18 16:42 31.346958 -115.823324 143 34770ft 461kts
10-Sep-18 16:43 31.244525 -115.733061 143 34772ft 462kts
10-Sep-18 16:44 31.142491 -115.643258 143 34770ft 462kts
10-Sep-18 16:45 31.037948 -115.557552 174 34480ft 464kts
10-Sep-18 16:46 30.914126 -115.540467 152 34114ft 459kts
10-Sep-18 16:47 30.836024 -115.433213 111 34109ft 454kts
10-Sep-18 16:48 30.768165 -115.314012 141 34119ft 455kts
10-Sep-18 16:49 30.669446 -115.222823 141 34114ft 454kts
10-Sep-18 16:50 30.570721 -115.131852 141 34094ft 454kts
10-Sep-18 16:51 30.471975 -115.041135 141 34087ft 457kts
10-Sep-18 16:52 30.372242 -114.949756 141 34106ft 460kts
10-Sep-18 16:53 30.276623 -114.862374 141 34139ft 463kts
10-Sep-18 16:54 30.176705 -114.771298 141 34155ft 464kts
10-Sep-18 16:55 30.075515 -114.679310 141 34149ft 464kts
10-Sep-18 16:56 29.974168 -114.587429 141 34133ft 463kts
10-Sep-18 16:57 29.873601 -114.496827 141 34121ft 463kts
10-Sep-18 16:58 29.772879 -114.405696 141 34111ft 462kts
10-Sep-18 16:59 29.672601 -114.315488 142 34110ft 462kts
10-Sep-18 17:00 29.571542 -114.224817 142 34590ft 462kts
10-Sep-18 17:01 29.470516 -114.134410 142 35000ft 459kts
10-Sep-18 17:02 29.386948 -114.059815 142 35023ft 460kts
10-Sep-18 17:03 29.269116 -113.954905 142 35020ft 459kts
10-Sep-18 17:04 29.185231 -113.880413 142 35017ft 459kts
10-Sep-18 17:05 29.085841 -113.792357 142 34806ft 458kts
10-Sep-18 17:06 28.985251 -113.703456 141 34862ft 457kts
10-Sep-18 17:07 28.885942 -113.615912 141 34860ft 453kts
10-Sep-18 17:08 28.786712 -113.528652 141 34820ft 451kts
10-Sep-18 17:09 28.687525 -113.441655 141 34810ft 451kts
10-Sep-18 17:10 28.588133 -113.354690 141 34821ft 451kts
10-Sep-18 17:11 28.489114 -113.268262 142 34838ft 452kts
10-Sep-18 17:12 28.389458 -113.181489 142 34849ft 452kts
10-Sep-18 17:13 28.289992 -113.095093 142 34840ft 453kts
10-Sep-18 17:14 28.190270 -113.008678 141 34799ft 452kts
10-Sep-18 17:15 28.090595 -112.922508 142 34805ft 450kts
10-Sep-18 17:16 27.993092 -112.838419 142 34787ft 446kts
10-Sep-18 17:17 27.895569 -112.754512 142 34753ft 445kts
10-Sep-18 17:18 27.797820 -112.670608 143 34750ft 445kts
10-Sep-18 17:19 27.699613 -112.586494 142 34764ft 444kts
10-Sep-18 17:20 27.601599 -112.502757 142 34772ft 446kts
10-Sep-18 17:21 27.502738 -112.418482 142 34783ft 446kts
10-Sep-18 17:22 27.404461 -112.334895 143 34788ft 446kts
10-Sep-18 17:23 27.303971 -112.253371 148 34795ft 446kts
10-Sep-18 17:24 27.198541 -112.180474 148 34797ft 446kts
10-Sep-18 17:25 27.159496 -112.153500 148 34796ft 446kts
10-Sep-18 17:26 27.086856 -112.103395 148 34808ft 445kts
10-Sep-18 17:27 26.981920 -112.031128 148 34792ft 444kts
10-Sep-18 17:28 26.870165 -112.003335 157 36164ft 422kts
10-Sep-18 17:29 26.768894 -111.927423 137 31190ft 438kts
10-Sep-18 17:30 26.685177 -111.853042 148 32562ft 414kts
10-Sep-18 17:31 26.587793 -111.784281 147 33834ft 412kts
10-Sep-18 17:32 26.492469 -111.715525 147 34808ft 416kts
10-Sep-18 17:33 26.392303 -111.643998 148 34794ft 441kts
10-Sep-18 17:34 26.288479 -111.568808 144 34998ft 447kts
10-Sep-18 17:35 26.184305 -111.481862 141 32952ft 452kts
10-Sep-18 17:36 26.100942 -111.378607 132 30533ft 422kts
10-Sep-18 17:37 26.010143 -111.297608 135 29788ft 442kts
10-Sep-18 17:38 25.922760 -111.198853 134 29791ft 450kts
10-Sep-18 17:39 25.836924 -111.102369 134 29789ft 449kts
10-Sep-18 17:40 25.794367 -111.054677 134 29790ft 450kts
10-Sep-18 17:41 25.729549 -110.982192 134 29789ft 449kts
10-Sep-18 17:42 25.641572 -110.883949 134 29790ft 449kts
10-Sep-18 17:43 25.553673 -110.786027 134 29784ft 449kts
10-Sep-18 17:44 25.465775 -110.688329 134 29781ft 449kts
10-Sep-18 17:45 25.377832 -110.590797 134 29787ft 449kts
10-Sep-18 17:46 25.289587 -110.493143 134 29790ft 449kts
10-Sep-18 17:47 25.201618 -110.396003 134 29790ft 449kts
10-Sep-18 17:48 25.114082 -110.299554 135 29790ft 450kts
10-Sep-18 17:49 25.025952 -110.202659 135 29790ft 449kts
10-Sep-18 17:50 24.937460 -110.105575 135 29788ft 449kts
10-Sep-18 17:51 24.849430 -110.009206 135 29788ft 449kts
10-Sep-18 17:52 24.761193 -109.912814 135 29790ft 449kts
10-Sep-18 17:53 24.672452 -109.816076 135 29789ft 449kts
10-Sep-18 17:54 24.584030 -109.719894 135 29014ft 449kts
10-Sep-18 17:55 24.495997 -109.624335 135 28044ft 442kts
10-Sep-18 17:56 24.409691 -109.530835 135 26798ft 428kts
10-Sep-18 17:57 24.319977 -109.450247 158 24663ft 415kts
10-Sep-18 17:58 24.208148 -109.452817 191 22400ft 408kts
10-Sep-18 17:59 24.099327 -109.480477 191 20105ft 398kts
10-Sep-18 18:00 23.993470 -109.507359 191 17819ft 388kts
10-Sep-18 18:01 23.909854 -109.528578 191 15921ft 382kts
10-Sep-18 18:02 23.808388 -109.554346 191 13578ft 374kts
10-Sep-18 18:03 23.708348 -109.579716 192 11225ft 366kts
10-Sep-18 18:04 23.614762 -109.603382 192 10205ft 323kts
10-Sep-18 18:05 23.532686 -109.624087 192 9399ft 290kts
10-Sep-18 18:06 23.455066 -109.643681 194 7760ft 283kts
10-Sep-18 18:07 23.383748 -109.668513 231 5923ft 247kts
10-Sep-18 18:08 23.350915 -109.709056 233 5332ft 206kts
10-Sep-18 18:09 23.307861 -109.734093 182 3961ft 189kts
10-Sep-18 18:10 23.257810 -109.729483 183 2562ft 167kts
10-Sep-18 18:11 23.219339 -109.726256 186 1689ft 126kts
10-Sep-18 18:12 23.185258 -109.723168 179 871ft 123kts
10-Sep-18 18:13 23.154877 -109.719535 174 383ft 36kts
10-Sep-18 18:14 23.146298 -109.718158 148 383ft 33kts
10-Sep-18 18:15 23.145554 -109.716556 358 383ft 16kts
10-Sep-18 18:16 23.151692 -109.717178 357 383ft 28kts
10-Sep-18 18:17 23.155990 -109.717183 82 383ft 9kts
10-Sep-18 18:18 23.156488 -109.716657 4 383ft 4kts
10-Sep-18 18:19 23.156698 -109.716125 84 383ft 0kts
10-Sep-18 18:20 23.156698 -109.716126 84 383ft 0kts
10-Sep-18 18:21 23.156698 -109.716126 84 383ft 0kts
10-Sep-18 18:22 23.156698 -109.716126 84 383ft 0kts
10-Sep-18 18:23 23.156698 -109.716126 84 383ft 0kts
10-Sep-18 18:24 23.156698 -109.716126 84 383ft 0kts
10-Sep-18 18:25 23.156698 -109.716126 84 383ft 0kts
10-Sep-18 18:26 23.156698 -109.716126 84 383ft 0kts
10-Sep-18 18:27 23.156698 -109.716126 84 383ft 0kts
10-Sep-18 18:28 23.156698 -109.716126 84 383ft 0kts

Navigation Log

Ident Type
Flight plan parsing failed, navigation log unavailable